This is the latest recevied weather packets stored in our database for station/object IZ7EXI-13. If no packets are shown the sender has not sent any weather packets the latest 10 day(s).
| Time | Temp. | Humidity | Pressure | Rain* | Wind** | Luminosity | Snow |
|---|---|---|---|---|---|---|---|
| 1777560277 | 17.78° C | 66% | 1022.6 hPa | - | - | - | - |
| 1777559849 | 17.78° C | 66% | 1022.6 hPa | - | - | - | - |
| 1777558949 | 17.22° C | 69% | 1022.5 hPa | - | - | - | - |
| 1777558049 | 17.78° C | 68% | 1022.5 hPa | - | - | - | - |
| 1777557149 | 17.78° C | 68% | 1022.5 hPa | - | - | - | - |
| 1777556248 | 17.22° C | 71% | 1022.5 hPa | - | - | - | - |
| 1777555348 | 16.67° C | 71% | 1022.5 hPa | - | - | - | - |
| 1777554448 | 16.67° C | 72% | 1022.6 hPa | - | - | - | - |
| 1777553548 | 16.67° C | 72% | 1022.6 hPa | - | - | - | - |
| 1777552648 | 16.67° C | 71% | 1022.6 hPa | - | - | - | - |
| 1777551747 | 16.67° C | 71% | 1022.6 hPa | - | - | - | - |
| 1777550847 | 16.67° C | 73% | 1022.5 hPa | - | - | - | - |
| 1777549947 | 16.11° C | 78% | 1022.3 hPa | - | - | - | - |
| 1777549047 | 15° C | 89% | 1022.5 hPa | - | - | - | - |
| 1777548146 | 15° C | 88% | 1022.5 hPa | - | - | - | - |
| 1777547246 | 14.44° C | 85% | 1022.4 hPa | - | - | - | - |
| 1777546346 | 15.56° C | 83% | 1022 hPa | - | - | - | - |
| 1777545446 | 17.22° C | 82% | 1021.8 hPa | - | - | - | - |
| 1777544546 | 17.78° C | 78% | 1021.8 hPa | - | - | - | - |
| 1777543645 | 18.89° C | 75% | 1021.7 hPa | - | - | - | - |
| 1777542745 | 18.89° C | 76% | 1021.7 hPa | - | - | - | - |
| 1777541845 | 19.44° C | 74% | 1021.6 hPa | - | - | - | - |
| 1777540945 | 19.44° C | 75% | 1021.6 hPa | - | - | - | - |
| 1777540044 | 19.44° C | 76% | 1021.7 hPa | - | - | - | - |
| 1777539144 | 18.89° C | 80% | 1021.6 hPa | - | - | - | - |
* Rain since midnight (hover to see other rain measurements)
** Current wind speed in m/s (hover to see current wind gust speed)